sensor_id;sensor_type;location;lat;lon;timestamp;pressure;altitude;pressure_sealevel;temperature;humidity
17072;BME280;7731;50.720;6.912;2023-04-06T00:01:59;100299.72;;;1.84;100.00
17072;BME280;7731;50.720;6.912;2023-04-06T00:04:30;100298.25;;;1.65;100.00
17072;BME280;7731;50.720;6.912;2023-04-06T00:07:04;100299.81;;;1.75;100.00
17072;BME280;7731;50.720;6.912;2023-04-06T00:09:34;100296.47;;;1.73;100.00
17072;BME280;7731;50.720;6.912;2023-04-06T00:12:07;100298.16;;;1.74;100.00
17072;BME280;7731;50.720;6.912;2023-04-06T00:14:38;100294.69;;;1.79;100.00
17072;BME280;7731;50.720;6.912;2023-04-06T00:17:11;100302.41;;;1.69;100.00
17072;BME280;7731;50.720;6.912;2023-04-06T00:19:41;100300.53;;;1.89;100.00
17072;BME280;7731;50.720;6.912;2023-04-06T00:22:14;100291.19;;;1.91;100.00
17072;BME280;7731;50.720;6.912;2023-04-06T00:24:45;100291.03;;;2.07;100.00
17072;BME280;7731;50.720;6.912;2023-04-06T00:27:18;100287.72;;;2.02;100.00
17072;BME280;7731;50.720;6.912;2023-04-06T00:29:48;100286.09;;;1.94;100.00
17072;BME280;7731;50.720;6.912;2023-04-06T00:32:18;100288.03;;;1.74;100.00
17072;BME280;7731;50.720;6.912;2023-04-06T00:34:49;100282.97;;;1.74;100.00
17072;BME280;7731;50.720;6.912;2023-04-06T00:37:22;100273.78;;;1.64;100.00
17072;BME280;7731;50.720;6.912;2023-04-06T00:39:52;100280.63;;;1.54;100.00
17072;BME280;7731;50.720;6.912;2023-04-06T00:42:24;100275.63;;;1.49;100.00
17072;BME280;7731;50.720;6.912;2023-04-06T00:44:59;100278.94;;;1.53;100.00
17072;BME280;7731;50.720;6.912;2023-04-06T00:47:30;100271.25;;;1.64;100.00
17072;BME280;7731;50.720;6.912;2023-04-06T00:50:00;100268.81;;;1.53;100.00
17072;BME280;7731;50.720;6.912;2023-04-06T00:52:36;100262.31;;;1.27;100.00
17072;BME280;7731;50.720;6.912;2023-04-06T00:55:09;100268.25;;;1.24;100.00
17072;BME280;7731;50.720;6.912;2023-04-06T00:57:40;100257.09;;;1.42;100.00
17072;BME280;7731;50.720;6.912;2023-04-06T01:00:13;100245.53;;;1.20;100.00
17072;BME280;7731;50.720;6.912;2023-04-06T01:02:43;100247.97;;;1.28;100.00
17072;BME280;7731;50.720;6.912;2023-04-06T01:05:16;100253.88;;;1.28;100.00
17072;BME280;7731;50.720;6.912;2023-04-06T01:07:50;100249.63;;;1.29;100.00
17072;BME280;7731;50.720;6.912;2023-04-06T01:10:24;100243.72;;;1.31;100.00
17072;BME280;7731;50.720;6.912;2023-04-06T01:12:55;100237.81;;;1.31;100.00
17072;BME280;7731;50.720;6.912;2023-04-06T01:15:27;100237.81;;;1.34;100.00
17072;BME280;7731;50.720;6.912;2023-04-06T01:17:58;100231.91;;;1.29;100.00
17072;BME280;7731;50.720;6.912;2023-04-06T01:20:32;100235.22;;;1.40;100.00
17072;BME280;7731;50.720;6.912;2023-04-06T01:23:05;100229.41;;;1.29;100.00
17072;BME280;7731;50.720;6.912;2023-04-06T01:25:35;100234.50;;;1.22;100.00
17072;BME280;7731;50.720;6.912;2023-04-06T01:28:06;100226.34;;;0.96;100.00
17072;BME280;7731;50.720;6.912;2023-04-06T01:30:36;100224.56;;;1.04;100.00
17072;BME280;7731;50.720;6.912;2023-04-06T01:33:07;100215.41;;;0.89;100.00
17072;BME280;7731;50.720;6.912;2023-04-06T01:35:38;100223.91;;;0.83;100.00
17072;BME280;7731;50.720;6.912;2023-04-06T01:38:12;100214.50;;;0.98;100.00
17072;BME280;7731;50.720;6.912;2023-04-06T01:40:42;100207.78;;;0.94;100.00
17072;BME280;7731;50.720;6.912;2023-04-06T01:43:14;100213.66;;;0.99;100.00
17072;BME280;7731;50.720;6.912;2023-04-06T01:45:44;100210.38;;;0.86;100.00
17072;BME280;7731;50.720;6.912;2023-04-06T01:48:18;100204.31;;;1.04;100.00
17072;BME280;7731;50.720;6.912;2023-04-06T01:50:50;100209.41;;;1.01;100.00
17072;BME280;7731;50.720;6.912;2023-04-06T01:53:31;100202.66;;;1.00;100.00
17072;BME280;7731;50.720;6.912;2023-04-06T01:56:01;100200.13;;;1.00;100.00
17072;BME280;7731;50.720;6.912;2023-04-06T01:58:33;100207.69;;;1.03;100.00
17072;BME280;7731;50.720;6.912;2023-04-06T02:01:03;100200.19;;;0.95;100.00
17072;BME280;7731;50.720;6.912;2023-04-06T02:03:34;100202.75;;;0.91;100.00
17072;BME280;7731;50.720;6.912;2023-04-06T02:06:05;100201.38;;;0.56;100.00
17072;BME280;7731;50.720;6.912;2023-04-06T02:08:38;100193.78;;;0.56;100.00
17072;BME280;7731;50.720;6.912;2023-04-06T02:11:08;100196.22;;;0.68;100.00
17072;BME280;7731;50.720;6.912;2023-04-06T02:13:39;100198.91;;;0.46;100.00
17072;BME280;7731;50.720;6.912;2023-04-06T02:16:09;100194.66;;;0.51;100.00
17072;BME280;7731;50.720;6.912;2023-04-06T02:18:40;100193.84;;;0.46;100.00
17072;BME280;7731;50.720;6.912;2023-04-06T02:21:10;100195.59;;;0.35;100.00
17072;BME280;7731;50.720;6.912;2023-04-06T02:23:43;100196.53;;;0.22;100.00
17072;BME280;7731;50.720;6.912;2023-04-06T02:26:14;100189.78;;;0.24;100.00
17072;BME280;7731;50.720;6.912;2023-04-06T02:28:44;100192.34;;;0.19;100.00
17072;BME280;7731;50.720;6.912;2023-04-06T02:31:15;100194.81;;;0.24;100.00
17072;BME280;7731;50.720;6.912;2023-04-06T02:33:45;100194.88;;;0.17;100.00
17072;BME280;7731;50.720;6.912;2023-04-06T02:36:16;100190.59;;;0.27;100.00
17072;BME280;7731;50.720;6.912;2023-04-06T02:38:49;100189.81;;;0.17;100.00
17072;BME280;7731;50.720;6.912;2023-04-06T02:41:19;100189.03;;;0.08;100.00
17072;BME280;7731;50.720;6.912;2023-04-06T02:43:49;100181.38;;;0.22;100.00
17072;BME280;7731;50.720;6.912;2023-04-06T02:46:20;100184.69;;;0.27;100.00
17072;BME280;7731;50.720;6.912;2023-04-06T02:48:51;100183.00;;;0.29;100.00
17072;BME280;7731;50.720;6.912;2023-04-06T02:51:21;100193.09;;;0.29;100.00
17072;BME280;7731;50.720;6.912;2023-04-06T02:53:55;100177.91;;;0.32;100.00
17072;BME280;7731;50.720;6.912;2023-04-06T02:56:28;100179.56;;;0.41;100.00
17072;BME280;7731;50.720;6.912;2023-04-06T02:58:58;100182.03;;;0.48;100.00
17072;BME280;7731;50.720;6.912;2023-04-06T03:01:28;100177.84;;;0.44;100.00
17072;BME280;7731;50.720;6.912;2023-04-06T03:03:59;100179.66;;;0.27;100.00
17072;BME280;7731;50.720;6.912;2023-04-06T03:06:29;100173.75;;;0.26;100.00
17072;BME280;7731;50.720;6.912;2023-04-06T03:09:06;100172.81;;;0.38;100.00
17072;BME280;7731;50.720;6.912;2023-04-06T03:11:38;100180.41;;;0.37;100.00
17072;BME280;7731;50.720;6.912;2023-04-06T03:14:08;100170.31;;;0.37;100.00
17072;BME280;7731;50.720;6.912;2023-04-06T03:16:40;100170.31;;;0.35;100.00
17072;BME280;7731;50.720;6.912;2023-04-06T03:19:11;100167.78;;;0.38;100.00
17072;BME280;7731;50.720;6.912;2023-04-06T03:21:41;100165.25;;;0.38;100.00
17072;BME280;7731;50.720;6.912;2023-04-06T03:24:14;100167.81;;;0.32;100.00
17072;BME280;7731;50.720;6.912;2023-04-06T03:26:45;100164.41;;;0.38;100.00
17072;BME280;7731;50.720;6.912;2023-04-06T03:29:16;100175.28;;;0.46;100.00
17072;BME280;7731;50.720;6.912;2023-04-06T03:31:47;100167.00;;;0.28;100.00
17072;BME280;7731;50.720;6.912;2023-04-06T03:34:17;100168.69;;;0.28;100.00
17072;BME280;7731;50.720;6.912;2023-04-06T03:36:48;100176.31;;;0.25;100.00
17072;BME280;7731;50.720;6.912;2023-04-06T03:39:38;100167.91;;;0.20;100.00
17072;BME280;7731;50.720;6.912;2023-04-06T03:42:08;100173.78;;;0.23;100.00
17072;BME280;7731;50.720;6.912;2023-04-06T03:44:39;100177.19;;;0.14;100.00
17072;BME280;7731;50.720;6.912;2023-04-06T03:47:09;100173.06;;;0.01;100.00
17072;BME280;7731;50.720;6.912;2023-04-06T03:49:40;100173.91;;;0.05;100.00
17072;BME280;7731;50.720;6.912;2023-04-06T03:52:10;100169.69;;;0.05;100.00
17072;BME280;7731;50.720;6.912;2023-04-06T03:54:43;100167.94;;;0.10;100.00
17072;BME280;7731;50.720;6.912;2023-04-06T03:57:14;100169.63;;;0.14;100.00
17072;BME280;7731;50.720;6.912;2023-04-06T03:59:44;100165.44;;;0.09;100.00
17072;BME280;7731;50.720;6.912;2023-04-06T04:02:15;100164.56;;;0.17;100.00
17072;BME280;7731;50.720;6.912;2023-04-06T04:04:45;100163.59;;;0.34;100.00
17072;BME280;7731;50.720;6.912;2023-04-06T04:07:16;100167.78;;;0.38;100.00
17072;BME280;7731;50.720;6.912;2023-04-06T04:09:50;100170.38;;;0.27;100.00
17072;BME280;7731;50.720;6.912;2023-04-06T04:12:20;100171.22;;;0.31;100.00
17072;BME280;7731;50.720;6.912;2023-04-06T04:14:50;100168.59;;;0.43;100.00
17072;BME280;7731;50.720;6.912;2023-04-06T04:17:22;100167.06;;;0.21;100.00
17072;BME280;7731;50.720;6.912;2023-04-06T04:19:52;100167.84;;;0.27;100.00
17072;BME280;7731;50.720;6.912;2023-04-06T04:22:24;100165.41;;;0.15;100.00
17072;BME280;7731;50.720;6.912;2023-04-06T04:24:57;100169.56;;;0.25;100.00
17072;BME280;7731;50.720;6.912;2023-04-06T04:27:28;100168.69;;;0.28;100.00
17072;BME280;7731;50.720;6.912;2023-04-06T04:29:58;100166.97;;;0.31;100.00
17072;BME280;7731;50.720;6.912;2023-04-06T04:32:29;100169.53;;;0.27;100.00
17072;BME280;7731;50.720;6.912;2023-04-06T04:34:59;100163.56;;;0.42;100.00
17072;BME280;7731;50.720;6.912;2023-04-06T04:37:30;100167.81;;;0.32;100.00
17072;BME280;7731;50.720;6.912;2023-04-06T04:40:09;100168.69;;;0.29;100.00
17072;BME280;7731;50.720;6.912;2023-04-06T04:42:40;100173.59;;;0.49;100.00
17072;BME280;7731;50.720;6.912;2023-04-06T04:45:10;100173.63;;;0.46;100.00
17072;BME280;7731;50.720;6.912;2023-04-06T04:47:41;100166.78;;;0.59;100.00
17072;BME280;7731;50.720;6.912;2023-04-06T04:50:11;100167.69;;;0.47;100.00
17072;BME280;7731;50.720;6.912;2023-04-06T04:52:42;100167.69;;;0.47;100.00
17072;BME280;7731;50.720;6.912;2023-04-06T04:55:15;100166.88;;;0.45;100.00
17072;BME280;7731;50.720;6.912;2023-04-06T04:57:46;100169.25;;;0.64;100.00
17072;BME280;7731;50.720;6.912;2023-04-06T05:00:17;100170.91;;;0.69;100.00
17072;BME280;7731;50.720;6.912;2023-04-06T05:02:52;100177.44;;;0.94;100.00
17072;BME280;7731;50.720;6.912;2023-04-06T05:05:23;100169.88;;;0.91;100.00
17072;BME280;7731;50.720;6.912;2023-04-06T05:07:53;100176.59;;;0.93;100.00
17072;BME280;7731;50.720;6.912;2023-04-06T05:10:26;100175.63;;;1.08;100.00
17072;BME280;7731;50.720;6.912;2023-04-06T05:12:57;100173.69;;;1.32;99.88
17072;BME280;7731;50.720;6.912;2023-04-06T05:15:28;100171.38;;;1.10;100.00
17072;BME280;7731;50.720;6.912;2023-04-06T05:17:58;100169.06;;;1.68;97.41
17072;BME280;7731;50.720;6.912;2023-04-06T05:20:29;100171.59;;;1.68;96.62
17072;BME280;7731;50.720;6.912;2023-04-06T05:22:59;100170.13;;;1.48;96.67
17072;BME280;7731;50.720;6.912;2023-04-06T05:25:32;100168.25;;;1.63;96.71
17072;BME280;7731;50.720;6.912;2023-04-06T05:28:03;100173.06;;;1.84;97.05
17072;BME280;7731;50.720;6.912;2023-04-06T05:30:33;100166.53;;;1.68;96.57
17072;BME280;7731;50.720;6.912;2023-04-06T05:33:05;100161.06;;;1.99;93.56
17072;BME280;7731;50.720;6.912;2023-04-06T05:35:36;100161.56;;;2.22;92.56
17072;BME280;7731;50.720;6.912;2023-04-06T05:38:08;100163.09;;;2.34;90.03
17072;BME280;7731;50.720;6.912;2023-04-06T05:40:44;100168.03;;;2.42;88.75
17072;BME280;7731;50.720;6.912;2023-04-06T05:43:15;100172.13;;;2.52;87.88
17072;BME280;7731;50.720;6.912;2023-04-06T05:45:48;100169.13;;;2.80;85.39
17072;BME280;7731;50.720;6.912;2023-04-06T05:48:26;100174.09;;;2.86;85.76
17072;BME280;7731;50.720;6.912;2023-04-06T05:50:56;100174.53;;;3.08;83.62
17072;BME280;7731;50.720;6.912;2023-04-06T05:53:27;100173.38;;;3.26;82.75
17072;BME280;7731;50.720;6.912;2023-04-06T05:56:04;100170.16;;;3.18;81.34
17072;BME280;7731;50.720;6.912;2023-04-06T05:58:36;100168.44;;;3.62;78.79
17072;BME280;7731;50.720;6.912;2023-04-06T06:01:06;100171.53;;;3.77;77.61
17072;BME280;7731;50.720;6.912;2023-04-06T06:03:37;100174.19;;;3.72;77.50
17072;BME280;7731;50.720;6.912;2023-04-06T06:06:07;100175.06;;;3.69;76.45
17072;BME280;7731;50.720;6.912;2023-04-06T06:08:38;100170.81;;;4.10;73.57
17072;BME280;7731;50.720;6.912;2023-04-06T06:11:11;100170.94;;;4.04;74.35
17072;BME280;7731;50.720;6.912;2023-04-06T06:13:41;100164.78;;;4.15;72.91
17072;BME280;7731;50.720;6.912;2023-04-06T06:16:12;100158.91;;;4.13;72.38
17072;BME280;7731;50.720;6.912;2023-04-06T06:18:42;100156.28;;;4.16;73.61
17072;BME280;7731;50.720;6.912;2023-04-06T06:21:13;100152.59;;;4.29;71.90
17072;BME280;7731;50.720;6.912;2023-04-06T06:23:44;100156.25;;;4.55;70.82
17072;BME280;7731;50.720;6.912;2023-04-06T06:26:18;100158.25;;;4.40;72.43
17072;BME280;7731;50.720;6.912;2023-04-06T06:28:49;100169.81;;;4.54;71.66
17072;BME280;7731;50.720;6.912;2023-04-06T06:31:20;100162.22;;;4.87;68.49
17072;BME280;7731;50.720;6.912;2023-04-06T06:33:52;100163.06;;;4.87;68.12
17072;BME280;7731;50.720;6.912;2023-04-06T06:36:22;100160.31;;;4.95;67.75
17072;BME280;7731;50.720;6.912;2023-04-06T06:38:53;100158.00;;;5.18;67.00
17072;BME280;7731;50.720;6.912;2023-04-06T06:41:28;100157.41;;;5.40;65.10
17072;BME280;7731;50.720;6.912;2023-04-06T06:43:58;100153.31;;;5.36;65.18
17072;BME280;7731;50.720;6.912;2023-04-06T06:46:30;100160.69;;;5.45;64.80
17072;BME280;7731;50.720;6.912;2023-04-06T06:49:01;100155.44;;;5.80;64.11
17072;BME280;7731;50.720;6.912;2023-04-06T06:51:31;100144.59;;;6.30;61.37
17072;BME280;7731;50.720;6.912;2023-04-06T06:54:02;100148.75;;;6.60;60.09
17072;BME280;7731;50.720;6.912;2023-04-06T06:56:35;100152.50;;;6.75;59.78
17072;BME280;7731;50.720;6.912;2023-04-06T06:59:06;100144.25;;;6.92;58.53
17072;BME280;7731;50.720;6.912;2023-04-06T07:01:39;100145.78;;;7.22;57.26
17072;BME280;7731;50.720;6.912;2023-04-06T07:04:11;100146.47;;;7.27;57.00
17072;BME280;7731;50.720;6.912;2023-04-06T07:06:41;100149.44;;;7.40;57.37
17072;BME280;7731;50.720;6.912;2023-04-06T07:09:12;100137.56;;;7.39;58.21
17072;BME280;7731;50.720;6.912;2023-04-06T07:11:45;100133.75;;;7.73;55.23
17072;BME280;7731;50.720;6.912;2023-04-06T07:14:16;100134.41;;;7.78;55.36
17072;BME280;7731;50.720;6.912;2023-04-06T07:16:46;100136.66;;;7.16;57.09
17072;BME280;7731;50.720;6.912;2023-04-06T07:19:18;100127.34;;;7.61;55.54
17072;BME280;7731;50.720;6.912;2023-04-06T07:21:50;100133.56;;;8.44;54.87
17072;BME280;7731;50.720;6.912;2023-04-06T07:24:21;100126.94;;;10.68;48.63
17072;BME280;7731;50.720;6.912;2023-04-06T07:26:54;100100.91;;;14.32;38.50
17072;BME280;7731;50.720;6.912;2023-04-06T07:29:26;100094.38;;;15.42;37.05
17072;BME280;7731;50.720;6.912;2023-04-06T07:31:56;100108.59;;;15.24;34.23
17072;BME280;7731;50.720;6.912;2023-04-06T07:34:29;100108.94;;;15.19;35.24
17072;BME280;7731;50.720;6.912;2023-04-06T07:37:00;100101.41;;;14.77;35.21
17072;BME280;7731;50.720;6.912;2023-04-06T07:39:31;100096.28;;;16.71;32.38
17072;BME280;7731;50.720;6.912;2023-04-06T07:42:04;100095.84;;;16.88;31.58
17072;BME280;7731;50.720;6.912;2023-04-06T07:44:35;100104.19;;;14.61;34.50
17072;BME280;7731;50.720;6.912;2023-04-06T07:47:05;100113.59;;;14.75;35.44
17072;BME280;7731;50.720;6.912;2023-04-06T07:49:37;100108.47;;;12.22;40.11
17072;BME280;7731;50.720;6.912;2023-04-06T07:52:07;100120.50;;;13.26;38.96
17072;BME280;7731;50.720;6.912;2023-04-06T07:54:37;100112.38;;;13.46;38.68
17072;BME280;7731;50.720;6.912;2023-04-06T07:57:10;100108.09;;;14.14;37.72
17072;BME280;7731;50.720;6.912;2023-04-06T07:59:41;100098.22;;;15.36;35.54
17072;BME280;7731;50.720;6.912;2023-04-06T08:02:11;100096.09;;;17.74;33.00
17072;BME280;7731;50.720;6.912;2023-04-06T08:04:45;100085.31;;;19.95;28.23
17072;BME280;7731;50.720;6.912;2023-04-06T08:07:15;100087.16;;;18.63;30.90
17072;BME280;7731;50.720;6.912;2023-04-06T08:09:45;100087.53;;;19.90;29.06
17072;BME280;7731;50.720;6.912;2023-04-06T08:12:18;100088.94;;;18.62;30.55
17072;BME280;7731;50.720;6.912;2023-04-06T08:14:54;100082.09;;;18.92;31.07
17072;BME280;7731;50.720;6.912;2023-04-06T08:17:26;100092.97;;;16.11;35.02
17072;BME280;7731;50.720;6.912;2023-04-06T08:19:58;100093.31;;;17.98;32.08
17072;BME280;7731;50.720;6.912;2023-04-06T08:22:30;100087.59;;;16.94;33.99
17072;BME280;7731;50.720;6.912;2023-04-06T08:25:03;100082.88;;;17.11;33.66
17072;BME280;7731;50.720;6.912;2023-04-06T08:27:36;100085.44;;;17.45;33.24
17072;BME280;7731;50.720;6.912;2023-04-06T08:30:11;100082.53;;;18.24;31.20
17072;BME280;7731;50.720;6.912;2023-04-06T08:32:43;100089.88;;;16.41;34.67
17072;BME280;7731;50.720;6.912;2023-04-06T08:35:14;100082.19;;;18.08;31.75
17072;BME280;7731;50.720;6.912;2023-04-06T08:37:44;100079.91;;;18.35;30.77
17072;BME280;7731;50.720;6.912;2023-04-06T08:40:15;100079.03;;;19.08;29.60
17072;BME280;7731;50.720;6.912;2023-04-06T08:42:52;100081.88;;;16.55;32.32
17072;BME280;7731;50.720;6.912;2023-04-06T08:45:24;100077.47;;;18.44;30.08
17072;BME280;7731;50.720;6.912;2023-04-06T08:47:57;100070.13;;;17.19;32.68
17072;BME280;7731;50.720;6.912;2023-04-06T08:50:30;100068.66;;;18.14;30.20
17072;BME280;7731;50.720;6.912;2023-04-06T08:53:02;100072.66;;;17.85;30.81
17072;BME280;7731;50.720;6.912;2023-04-06T08:55:35;100067.44;;;17.53;31.15
17072;BME280;7731;50.720;6.912;2023-04-06T08:58:10;100072.38;;;18.63;30.66
17072;BME280;7731;50.720;6.912;2023-04-06T09:00:59;100071.94;;;19.20;28.81
17072;BME280;7731;50.720;6.912;2023-04-06T09:03:37;100072.53;;;17.98;30.47
17072;BME280;7731;50.720;6.912;2023-04-06T09:06:13;100075.03;;;17.45;31.06
17072;BME280;7731;50.720;6.912;2023-04-06T09:08:44;100081.13;;;15.95;33.67
17072;BME280;7731;50.720;6.912;2023-04-06T09:11:15;100083.28;;;16.48;32.57
17072;BME280;7731;50.720;6.912;2023-04-06T09:13:50;100084.09;;;16.49;32.85
17072;BME280;7731;50.720;6.912;2023-04-06T09:16:22;100082.47;;;16.12;33.17
17072;BME280;7731;50.720;6.912;2023-04-06T09:18:53;100086.13;;;16.10;33.98
17072;BME280;7731;50.720;6.912;2023-04-06T09:21:30;100087.38;;;16.39;33.73
17072;BME280;7731;50.720;6.912;2023-04-06T09:24:00;100094.59;;;16.47;33.63
17072;BME280;7731;50.720;6.912;2023-04-06T09:26:31;100082.13;;;15.81;34.79
17072;BME280;7731;50.720;6.912;2023-04-06T09:29:05;100080.09;;;16.09;35.26
17072;BME280;7731;50.720;6.912;2023-04-06T09:31:36;100080.22;;;16.07;34.00
17072;BME280;7731;50.720;6.912;2023-04-06T09:34:06;100082.75;;;16.20;33.08
17072;BME280;7731;50.720;6.912;2023-04-06T09:36:37;100083.22;;;15.29;34.40
17072;BME280;7731;50.720;6.912;2023-04-06T09:39:09;100082.19;;;16.39;33.26
17072;BME280;7731;50.720;6.912;2023-04-06T09:41:39;100086.03;;;17.26;32.45
17072;BME280;7731;50.720;6.912;2023-04-06T09:44:18;100083.13;;;17.08;32.25
17072;BME280;7731;50.720;6.912;2023-04-06T09:46:54;100079.31;;;16.20;32.85
17072;BME280;7731;50.720;6.912;2023-04-06T09:49:30;100083.47;;;16.34;33.42
17072;BME280;7731;50.720;6.912;2023-04-06T09:52:03;100089.75;;;15.96;33.12
17072;BME280;7731;50.720;6.912;2023-04-06T09:54:38;100081.00;;;15.97;33.63
17072;BME280;7731;50.720;6.912;2023-04-06T09:57:19;100079.41;;;15.22;34.89
17072;BME280;7731;50.720;6.912;2023-04-06T10:00:03;100091.06;;;16.59;32.79
17072;BME280;7731;50.720;6.912;2023-04-06T10:02:46;100076.44;;;16.36;32.79
17072;BME280;7731;50.720;6.912;2023-04-06T10:05:29;100075.31;;;16.96;32.02
17072;BME280;7731;50.720;6.912;2023-04-06T10:08:09;100078.09;;;15.77;33.99
17072;BME280;7731;50.720;6.912;2023-04-06T10:10:40;100078.16;;;16.24;33.52
17072;BME280;7731;50.720;6.912;2023-04-06T10:13:11;100082.53;;;16.23;33.50
17072;BME280;7731;50.720;6.912;2023-04-06T10:15:44;100081.50;;;15.16;34.96
17072;BME280;7731;50.720;6.912;2023-04-06T10:18:16;100084.59;;;14.57;36.09
17072;BME280;7731;50.720;6.912;2023-04-06T10:20:52;100080.78;;;15.51;34.23
17072;BME280;7731;50.720;6.912;2023-04-06T10:23:33;100081.63;;;16.36;32.56
17072;BME280;7731;50.720;6.912;2023-04-06T10:26:04;100075.31;;;16.85;31.97
17072;BME280;7731;50.720;6.912;2023-04-06T10:28:36;100073.56;;;16.97;31.80
17072;BME280;7731;50.720;6.912;2023-04-06T10:31:09;100075.31;;;15.67;33.74
17072;BME280;7731;50.720;6.912;2023-04-06T10:33:40;100073.00;;;16.00;33.24
17072;BME280;7731;50.720;6.912;2023-04-06T10:36:14;100072.06;;;15.52;32.78
17072;BME280;7731;50.720;6.912;2023-04-06T10:38:44;100066.13;;;15.87;33.29
17072;BME280;7731;50.720;6.912;2023-04-06T10:41:18;100070.88;;;15.94;33.38
17072;BME280;7731;50.720;6.912;2023-04-06T10:43:56;100058.97;;;15.67;33.58
17072;BME280;7731;50.720;6.912;2023-04-06T10:46:30;100069.56;;;15.88;33.68
17072;BME280;7731;50.720;6.912;2023-04-06T10:49:11;100069.25;;;15.56;34.46
17072;BME280;7731;50.720;6.912;2023-04-06T10:51:42;100070.72;;;15.71;33.33
17072;BME280;7731;50.720;6.912;2023-04-06T10:54:16;100068.34;;;15.20;33.98
17072;BME280;7731;50.720;6.912;2023-04-06T10:56:49;100070.94;;;15.68;33.57
17072;BME280;7731;50.720;6.912;2023-04-06T10:59:20;100071.28;;;16.00;32.99
17072;BME280;7731;50.720;6.912;2023-04-06T11:01:55;100065.91;;;15.42;34.04
17072;BME280;7731;50.720;6.912;2023-04-06T11:04:26;100064.72;;;15.46;34.14
17072;BME280;7731;50.720;6.912;2023-04-06T11:06:56;100063.53;;;15.39;33.87
17072;BME280;7731;50.720;6.912;2023-04-06T11:09:29;100066.13;;;15.39;34.00
17072;BME280;7731;50.720;6.912;2023-04-06T11:12:02;100065.16;;;15.16;35.05
17072;BME280;7731;50.720;6.912;2023-04-06T11:14:33;100060.22;;;14.87;34.92
17072;BME280;7731;50.720;6.912;2023-04-06T11:17:06;100059.50;;;15.35;33.99
17072;BME280;7731;50.720;6.912;2023-04-06T11:19:37;100055.31;;;15.45;34.23
17072;BME280;7731;50.720;6.912;2023-04-06T11:22:08;100053.06;;;15.41;34.62
17072;BME280;7731;50.720;6.912;2023-04-06T11:24:38;100061.59;;;15.30;34.29
17072;BME280;7731;50.720;6.912;2023-04-06T11:27:12;100063.19;;;14.94;35.46
17072;BME280;7731;50.720;6.912;2023-04-06T11:29:44;100052.31;;;15.14;36.11
17072;BME280;7731;50.720;6.912;2023-04-06T11:32:23;100056.84;;;16.32;34.10
17072;BME280;7731;50.720;6.912;2023-04-06T11:34:54;100054.69;;;15.42;34.09
17072;BME280;7731;50.720;6.912;2023-04-06T11:37:26;100049.19;;;15.09;35.53
17072;BME280;7731;50.720;6.912;2023-04-06T11:39:58;100049.69;;;16.00;34.95
17072;BME280;7731;50.720;6.912;2023-04-06T11:42:29;100046.94;;;16.25;34.04
17072;BME280;7731;50.720;6.912;2023-04-06T11:45:00;100054.50;;;16.40;33.12
17072;BME280;7731;50.720;6.912;2023-04-06T11:47:35;100048.56;;;16.15;33.97
17072;BME280;7731;50.720;6.912;2023-04-06T11:50:10;100053.00;;;16.60;33.08
17072;BME280;7731;50.720;6.912;2023-04-06T11:52:42;100042.91;;;16.21;33.71
17072;BME280;7731;50.720;6.912;2023-04-06T11:55:17;100051.25;;;15.78;33.33
17072;BME280;7731;50.720;6.912;2023-04-06T11:57:48;100047.09;;;16.47;32.66
17072;BME280;7731;50.720;6.912;2023-04-06T12:00:22;100043.22;;;16.64;32.63
17072;BME280;7731;50.720;6.912;2023-04-06T12:02:55;100041.31;;;16.77;32.07
17072;BME280;7731;50.720;6.912;2023-04-06T12:05:28;100041.34;;;16.66;32.06
17072;BME280;7731;50.720;6.912;2023-04-06T12:07:59;100041.41;;;15.83;32.51
17072;BME280;7731;50.720;6.912;2023-04-06T12:10:30;100049.31;;;16.40;31.28
17072;BME280;7731;50.720;6.912;2023-04-06T12:13:00;100042.34;;;15.82;32.93
17072;BME280;7731;50.720;6.912;2023-04-06T12:15:32;100045.84;;;16.17;32.36
17072;BME280;7731;50.720;6.912;2023-04-06T12:18:06;100041.19;;;16.33;32.36
17072;BME280;7731;50.720;6.912;2023-04-06T12:20:37;100041.97;;;16.22;33.26
17072;BME280;7731;50.720;6.912;2023-04-06T12:23:08;100046.00;;;15.43;33.66
17072;BME280;7731;50.720;6.912;2023-04-06T12:25:40;100044.31;;;14.80;34.81
17072;BME280;7731;50.720;6.912;2023-04-06T12:28:12;100041.94;;;15.51;33.83
17072;BME280;7731;50.720;6.912;2023-04-06T12:30:44;100037.66;;;14.38;34.32
17072;BME280;7731;50.720;6.912;2023-04-06T12:33:17;100044.91;;;14.71;35.52
17072;BME280;7731;50.720;6.912;2023-04-06T12:35:48;100048.81;;;14.38;37.55
17072;BME280;7731;50.720;6.912;2023-04-06T12:38:18;100050.69;;;14.62;36.63
17072;BME280;7731;50.720;6.912;2023-04-06T12:40:49;100055.31;;;14.31;37.21
17072;BME280;7731;50.720;6.912;2023-04-06T12:43:19;100054.16;;;14.09;37.67
17072;BME280;7731;50.720;6.912;2023-04-06T12:45:51;100060.06;;;14.24;37.99
17072;BME280;7731;50.720;6.912;2023-04-06T12:48:25;100049.44;;;14.42;36.04
17072;BME280;7731;50.720;6.912;2023-04-06T12:50:58;100054.13;;;13.97;37.37
17072;BME280;7731;50.720;6.912;2023-04-06T12:53:29;100053.34;;;13.82;37.93
17072;BME280;7731;50.720;6.912;2023-04-06T12:56:00;100052.75;;;13.91;37.18
17072;BME280;7731;50.720;6.912;2023-04-06T12:58:30;100044.88;;;14.07;37.84
17072;BME280;7731;50.720;6.912;2023-04-06T13:01:05;100056.94;;;13.66;38.98
17072;BME280;7731;50.720;6.912;2023-04-06T13:03:39;100058.41;;;13.70;39.84
17072;BME280;7731;50.720;6.912;2023-04-06T13:06:10;100050.50;;;13.59;39.69
17072;BME280;7731;50.720;6.912;2023-04-06T13:08:42;100050.75;;;13.27;40.03
17072;BME280;7731;50.720;6.912;2023-04-06T13:11:14;100055.38;;;13.36;39.81
17072;BME280;7731;50.720;6.912;2023-04-06T13:13:47;100055.38;;;13.08;41.39
17072;BME280;7731;50.720;6.912;2023-04-06T13:16:18;100059.97;;;12.88;42.85
17072;BME280;7731;50.720;6.912;2023-04-06T13:18:51;100083.16;;;12.45;44.02
17072;BME280;7731;50.720;6.912;2023-04-06T13:21:21;100082.59;;;12.54;44.88
17072;BME280;7731;50.720;6.912;2023-04-06T13:23:52;100081.72;;;12.69;45.06
17072;BME280;7731;50.720;6.912;2023-04-06T13:26:25;100086.09;;;12.39;46.07
17072;BME280;7731;50.720;6.912;2023-04-06T13:28:56;100081.19;;;12.34;49.94